createdAt,value
2023-12-07T00:00:18.388Z,8.03
2023-12-07T00:02:45.939Z,7.23
2023-12-07T00:05:13.409Z,7.87
2023-12-07T00:07:40.826Z,8.40
2023-12-07T00:10:08.620Z,8.10
2023-12-07T00:12:36.071Z,7.77
2023-12-07T00:15:03.978Z,8.20
2023-12-07T00:28:17.398Z,8.20
2023-12-07T00:30:44.995Z,7.73
2023-12-07T00:33:12.350Z,8.03
2023-12-07T00:35:39.755Z,7.90
2023-12-07T00:38:09.472Z,8.40
2023-12-07T00:40:39.952Z,8.40
2023-12-07T00:43:08.580Z,7.63
2023-12-07T00:45:35.951Z,8.43
2023-12-07T00:48:03.387Z,8.33
2023-12-07T00:50:30.807Z,7.67
2023-12-07T00:52:58.250Z,8.60
2023-12-07T00:55:25.741Z,8.43
2023-12-07T00:57:53.131Z,8.07
2023-12-07T01:00:20.604Z,8.43
2023-12-07T01:02:48.035Z,8.57
2023-12-07T01:05:15.524Z,8.23
2023-12-07T01:07:42.996Z,8.73
2023-12-07T01:10:10.671Z,8.20
2023-12-07T01:12:38.124Z,8.20
2023-12-07T01:15:06.067Z,8.93
2023-12-07T01:17:33.442Z,8.63
2023-12-07T01:20:01.097Z,8.53
2023-12-07T01:22:28.711Z,8.63
2023-12-07T01:24:56.420Z,8.70
2023-12-07T01:27:23.912Z,8.80
2023-12-07T01:29:51.393Z,9.10
2023-12-07T01:32:19.439Z,9.67
2023-12-07T01:34:46.894Z,8.90
2023-12-07T01:37:14.602Z,8.53
2023-12-07T01:39:44.477Z,8.97
2023-12-07T01:42:13.354Z,8.80
2023-12-07T01:44:41.150Z,9.67
2023-12-07T01:47:09.241Z,8.60
2023-12-07T01:49:37.189Z,8.20
2023-12-07T01:52:04.672Z,8.27
2023-12-07T01:54:32.479Z,8.83
2023-12-07T01:56:59.925Z,8.73
2023-12-07T01:59:27.345Z,8.90
2023-12-07T02:01:54.850Z,9.13
2023-12-07T02:04:22.438Z,8.40
2023-12-07T02:06:49.947Z,8.33
2023-12-07T02:09:17.659Z,8.50
2023-12-07T02:11:45.191Z,8.33
2023-12-07T02:14:13.519Z,9.33
2023-12-07T02:16:52.212Z,7.83
2023-12-07T02:19:33.970Z,8.43
2023-12-07T02:22:04.719Z,8.30
2023-12-07T02:24:35.356Z,6.30
2023-12-07T02:27:02.797Z,8.50
2023-12-07T02:29:30.193Z,8.73
2023-12-07T02:31:57.678Z,9.00
2023-12-07T02:34:25.121Z,8.10
2023-12-07T02:36:55.334Z,8.37
2023-12-07T02:39:23.120Z,8.23
2023-12-07T02:41:51.188Z,8.23
2023-12-07T02:44:18.692Z,6.60
2023-12-07T02:46:46.964Z,8.20
2023-12-07T02:49:14.434Z,7.37
2023-12-07T02:51:41.869Z,8.13
2023-12-07T02:54:09.270Z,7.20
2023-12-07T02:56:36.666Z,8.73
2023-12-07T02:59:04.624Z,8.73
2023-12-07T03:01:32.256Z,8.07
2023-12-07T03:03:59.837Z,8.47
2023-12-07T03:06:27.456Z,8.63
2023-12-07T03:08:54.832Z,7.97
2023-12-07T03:11:22.235Z,8.40
2023-12-07T03:13:50.020Z,7.83
2023-12-07T03:16:17.748Z,8.47
2023-12-07T03:18:45.190Z,8.40
2023-12-07T03:21:12.629Z,8.17
2023-12-07T03:23:39.969Z,7.80
2023-12-07T03:26:07.468Z,8.87
2023-12-07T03:35:51.062Z,8.37
2023-12-07T03:38:18.663Z,8.20
2023-12-07T03:40:49.382Z,8.03
2023-12-07T03:43:18.306Z,8.50
2023-12-07T03:45:45.884Z,8.87
2023-12-07T03:48:13.584Z,8.00
2023-12-07T03:50:41.199Z,8.40
2023-12-07T03:53:08.780Z,8.70
2023-12-07T03:55:36.340Z,7.83
2023-12-07T03:58:03.981Z,7.97
2023-12-07T04:00:31.552Z,7.93
2023-12-07T04:02:59.078Z,8.30
2023-12-07T04:05:26.733Z,8.10
2023-12-07T04:07:54.290Z,8.27
2023-12-07T04:10:21.899Z,8.73
2023-12-07T04:12:49.533Z,8.40
2023-12-07T04:15:19.433Z,8.67
2023-12-07T04:17:47.593Z,8.67
2023-12-07T04:20:15.209Z,8.87
2023-12-07T04:22:44.851Z,7.53
2023-12-07T04:25:12.388Z,8.47
2023-12-07T04:27:39.921Z,8.50
2023-12-07T04:30:07.824Z,7.57
2023-12-07T04:32:35.352Z,8.10
2023-12-07T04:35:02.928Z,7.67
2023-12-07T04:37:30.585Z,8.10
2023-12-07T04:39:58.139Z,7.60
2023-12-07T04:42:25.984Z,7.73
2023-12-07T04:44:53.840Z,8.23
2023-12-07T04:47:21.377Z,8.40
2023-12-07T04:49:49.074Z,8.13
2023-12-07T04:52:17.207Z,8.07
2023-12-07T04:54:44.956Z,8.03
2023-12-07T04:57:12.445Z,8.33
2023-12-07T04:59:40.891Z,7.87
2023-12-07T05:02:08.569Z,7.83
2023-12-07T05:04:36.207Z,8.13
2023-12-07T05:07:05.398Z,7.80
2023-12-07T05:09:33.114Z,8.30
2023-12-07T05:12:00.763Z,7.77
2023-12-07T05:14:28.522Z,8.10
2023-12-07T05:16:57.221Z,7.63
2023-12-07T05:19:26.792Z,7.80
2023-12-07T05:21:54.413Z,7.33
2023-12-07T05:24:22.192Z,7.50
2023-12-07T05:26:53.159Z,7.50
2023-12-07T05:29:20.768Z,8.03
2023-12-07T05:31:51.358Z,7.73
2023-12-07T05:45:11.413Z,7.73
2023-12-07T05:47:38.986Z,8.03
2023-12-07T05:50:06.864Z,8.13
2023-12-07T05:52:34.621Z,8.73
2023-12-07T05:55:02.498Z,30.83
2023-12-07T05:57:30.007Z,59.40
2023-12-07T05:59:57.553Z,13.70
2023-12-07T06:02:25.385Z,10.63
2023-12-07T06:04:53.247Z,10.50
2023-12-07T06:07:20.928Z,8.57
2023-12-07T06:09:48.507Z,9.63
2023-12-07T06:12:16.159Z,10.07
2023-12-07T06:14:43.729Z,9.70
2023-12-07T06:17:11.276Z,9.37
2023-12-07T06:19:38.952Z,9.43
2023-12-07T06:22:07.185Z,9.73
2023-12-07T06:24:34.819Z,9.83
2023-12-07T06:27:03.074Z,9.97
2023-12-07T06:29:30.743Z,9.43
2023-12-07T06:31:59.319Z,9.40
2023-12-07T06:34:26.905Z,9.10
2023-12-07T06:36:54.574Z,9.33
2023-12-07T06:39:22.127Z,8.70
2023-12-07T06:41:49.818Z,9.10
2023-12-07T06:44:17.337Z,9.23
2023-12-07T06:46:45.012Z,9.20
2023-12-07T06:49:14.236Z,9.33
2023-12-07T06:51:41.830Z,9.27
2023-12-07T06:54:09.483Z,9.30
2023-12-07T06:56:37.097Z,9.63
2023-12-07T06:59:04.813Z,9.07
2023-12-07T07:01:33.176Z,9.00
2023-12-07T07:04:02.087Z,8.60
2023-12-07T07:06:29.656Z,8.13
2023-12-07T07:08:59.361Z,8.80
2023-12-07T07:11:30.078Z,8.27
2023-12-07T07:13:57.712Z,8.87
2023-12-07T07:16:25.465Z,9.13
2023-12-07T07:18:53.202Z,8.57
2023-12-07T07:21:21.120Z,7.97
2023-12-07T07:23:48.660Z,8.97
2023-12-07T07:26:18.093Z,9.13
2023-12-07T07:28:45.974Z,8.90
2023-12-07T07:31:14.043Z,8.90
2023-12-07T07:33:41.630Z,7.80
2023-12-07T07:36:09.522Z,8.07
2023-12-07T07:38:37.054Z,8.40
2023-12-07T07:41:04.712Z,7.67
2023-12-07T07:43:32.218Z,7.33
2023-12-07T07:46:00.072Z,7.87
2023-12-07T07:48:27.811Z,7.70
2023-12-07T07:50:55.551Z,7.77
2023-12-07T07:53:23.067Z,8.27
2023-12-07T07:55:50.661Z,7.87
2023-12-07T07:58:18.214Z,7.47
2023-12-07T08:00:47.824Z,7.37
2023-12-07T08:03:15.449Z,7.13
2023-12-07T08:05:43.138Z,8.20
2023-12-07T08:08:11.394Z,7.87
2023-12-07T08:10:53.670Z,7.53
2023-12-07T08:13:23.736Z,8.07
2023-12-07T08:15:51.864Z,7.63
2023-12-07T08:18:20.244Z,8.13
2023-12-07T08:20:47.981Z,7.87
2023-12-07T08:23:15.649Z,7.37
2023-12-07T08:25:44.888Z,7.60
2023-12-07T08:28:12.723Z,6.57
2023-12-07T08:30:40.296Z,7.47
2023-12-07T08:33:08.123Z,7.67
2023-12-07T08:35:35.770Z,9.97
2023-12-07T08:38:04.162Z,7.47
2023-12-07T08:40:31.721Z,7.07
2023-12-07T08:42:59.325Z,7.50
2023-12-07T08:45:26.890Z,7.83
2023-12-07T08:47:54.662Z,7.00
2023-12-07T08:50:23.040Z,6.90
2023-12-07T08:52:56.466Z,7.17
2023-12-07T08:55:27.616Z,7.40
2023-12-07T08:57:55.921Z,6.20
2023-12-07T09:00:26.312Z,6.67
2023-12-07T09:02:54.266Z,7.10
2023-12-07T09:05:21.769Z,6.97
2023-12-07T09:07:49.451Z,6.63
2023-12-07T09:10:17.081Z,7.07
2023-12-07T09:12:44.866Z,6.73
2023-12-07T09:15:12.584Z,6.90
2023-12-07T09:17:40.973Z,6.60
2023-12-07T09:20:15.765Z,6.10
2023-12-07T09:22:47.544Z,6.77
2023-12-07T09:25:15.480Z,6.70
2023-12-07T09:27:43.102Z,6.50
2023-12-07T09:30:14.948Z,6.33
2023-12-07T09:32:45.142Z,6.50
2023-12-07T09:35:20.189Z,6.73
2023-12-07T09:37:48.598Z,6.97
2023-12-07T09:40:18.592Z,6.97
2023-12-07T09:42:46.838Z,7.37
2023-12-07T09:45:15.829Z,6.33
2023-12-07T09:47:44.298Z,6.07
2023-12-07T09:50:13.241Z,6.97
2023-12-07T09:52:42.512Z,6.93
2023-12-07T09:55:13.669Z,6.73
2023-12-07T09:57:41.371Z,6.13
2023-12-07T10:00:15.180Z,6.47
2023-12-07T10:02:43.948Z,6.40
2023-12-07T10:05:14.646Z,6.77
2023-12-07T10:07:43.412Z,6.50
2023-12-07T10:10:14.738Z,6.60
2023-12-07T10:12:54.656Z,7.00
2023-12-07T10:15:23.612Z,6.47
2023-12-07T10:18:01.631Z,7.17
2023-12-07T10:20:30.781Z,7.40
2023-12-07T10:23:09.139Z,6.80
2023-12-07T10:25:44.148Z,6.87
2023-12-07T10:28:15.339Z,6.27
2023-12-07T10:30:45.401Z,6.93
2023-12-07T10:33:15.022Z,6.53
2023-12-07T10:35:43.747Z,6.93
2023-12-07T10:38:12.886Z,6.97
2023-12-07T10:40:41.056Z,7.00
2023-12-07T10:43:09.817Z,7.23
2023-12-07T10:45:41.017Z,7.83
2023-12-07T10:48:09.621Z,6.77
2023-12-07T10:50:39.401Z,7.77
2023-12-07T10:53:11.932Z,8.37
2023-12-07T10:55:49.750Z,6.67
2023-12-07T10:58:18.920Z,7.63
2023-12-07T11:00:49.952Z,8.43
2023-12-07T11:03:22.453Z,8.60
2023-12-07T11:05:51.022Z,8.07
2023-12-07T11:08:30.783Z,7.93
2023-12-07T11:10:58.360Z,7.60
2023-12-07T11:13:31.234Z,7.73
2023-12-07T11:15:59.147Z,5.97
2023-12-07T11:18:28.290Z,2.97
2023-12-07T11:20:58.866Z,7.47
2023-12-07T11:23:28.866Z,7.33
2023-12-07T11:25:57.604Z,7.10
2023-12-07T11:28:38.691Z,7.60
2023-12-07T11:31:08.606Z,7.87
2023-12-07T11:33:39.374Z,8.00
2023-12-07T11:36:08.238Z,7.27
2023-12-07T11:38:36.115Z,7.00
2023-12-07T11:41:06.597Z,7.20
2023-12-07T11:43:34.739Z,7.23
2023-12-07T11:46:02.625Z,7.30
2023-12-07T11:48:30.353Z,7.47
2023-12-07T11:50:59.502Z,6.90
2023-12-07T11:53:28.331Z,6.90
2023-12-07T11:55:55.959Z,6.67
2023-12-07T11:58:23.791Z,7.13
2023-12-07T12:00:53.463Z,6.63
2023-12-07T12:03:21.379Z,6.53
2023-12-07T12:05:49.095Z,6.40
2023-12-07T12:08:18.858Z,6.13
2023-12-07T12:10:46.974Z,6.10
2023-12-07T12:13:14.776Z,5.87
2023-12-07T12:15:42.810Z,5.90
2023-12-07T12:18:11.143Z,5.63
2023-12-07T12:20:38.809Z,4.90
2023-12-07T12:23:06.322Z,5.10
2023-12-07T12:25:34.075Z,5.27
2023-12-07T12:28:05.555Z,5.40
2023-12-07T12:30:33.539Z,5.10
2023-12-07T12:33:01.551Z,5.13
2023-12-07T12:35:29.386Z,5.83
2023-12-07T12:37:57.105Z,6.33
2023-12-07T12:40:25.624Z,5.83
2023-12-07T12:42:56.584Z,6.17
2023-12-07T12:45:25.238Z,6.47
2023-12-07T12:47:52.813Z,5.97
2023-12-07T12:50:37.924Z,6.07
2023-12-07T12:53:06.418Z,5.80
2023-12-07T12:55:43.655Z,6.30
2023-12-07T12:58:12.154Z,5.97
2023-12-07T13:00:40.362Z,5.63
2023-12-07T13:03:08.141Z,5.87
2023-12-07T13:05:36.148Z,5.60
2023-12-07T13:08:12.622Z,6.20
2023-12-07T13:10:42.776Z,5.50
2023-12-07T13:13:10.515Z,5.57
2023-12-07T13:15:38.782Z,5.00
2023-12-07T13:18:07.553Z,5.07
2023-12-07T13:23:08.829Z,5.67
2023-12-07T13:25:36.380Z,5.30
2023-12-07T13:28:03.947Z,5.87
2023-12-07T13:30:34.921Z,4.90
2023-12-07T13:33:10.346Z,5.37
2023-12-07T13:35:45.933Z,5.13
2023-12-07T13:38:13.588Z,5.33
2023-12-07T13:40:41.274Z,5.83
2023-12-07T13:43:10.481Z,5.87
2023-12-07T13:45:38.114Z,5.17
2023-12-07T13:48:05.726Z,5.40
2023-12-07T13:50:33.351Z,5.73
2023-12-07T13:53:00.964Z,6.17
2023-12-07T13:55:28.481Z,5.40
2023-12-07T13:57:57.814Z,6.30
2023-12-07T14:00:25.336Z,5.77
2023-12-07T14:02:52.989Z,7.67
2023-12-07T14:05:22.836Z,9.07
2023-12-07T14:07:51.103Z,6.37
2023-12-07T14:10:18.916Z,5.80
2023-12-07T14:12:46.602Z,5.20
2023-12-07T14:15:14.225Z,5.63
2023-12-07T14:17:47.631Z,5.30
2023-12-07T14:20:35.641Z,5.53
2023-12-07T14:23:12.825Z,5.70
2023-12-07T14:25:41.376Z,6.27
2023-12-07T14:28:08.891Z,6.10
2023-12-07T14:30:37.409Z,6.20
2023-12-07T14:33:05.310Z,6.97
2023-12-07T14:35:33.065Z,6.47
2023-12-07T14:38:00.651Z,7.07
2023-12-07T14:40:28.273Z,7.13
2023-12-07T14:42:55.886Z,6.83
2023-12-07T14:45:23.557Z,6.40
2023-12-07T14:47:52.361Z,7.10
2023-12-07T14:50:20.570Z,7.43
2023-12-07T14:52:48.530Z,7.33
2023-12-07T14:55:16.157Z,6.90
2023-12-07T14:57:43.944Z,6.93
2023-12-07T15:00:11.761Z,7.03
2023-12-07T15:02:39.515Z,7.20
2023-12-07T15:05:07.420Z,7.57
2023-12-07T15:07:34.993Z,7.93
2023-12-07T15:10:04.302Z,7.50
2023-12-07T15:12:32.569Z,7.40
2023-12-07T15:15:00.303Z,8.03
2023-12-07T15:17:29.676Z,7.20
2023-12-07T15:19:57.639Z,8.07
2023-12-07T15:22:25.515Z,8.13
2023-12-07T15:24:54.468Z,8.13
2023-12-07T15:27:22.810Z,8.03
2023-12-07T15:29:51.945Z,7.83
2023-12-07T15:32:19.464Z,8.27
2023-12-07T15:34:47.455Z,7.93
2023-12-07T15:37:15.745Z,7.67
2023-12-07T15:39:44.973Z,7.80
2023-12-07T15:42:13.105Z,8.03
2023-12-07T15:44:41.102Z,7.83
2023-12-07T15:47:09.233Z,7.80
2023-12-07T15:49:37.306Z,8.13
2023-12-07T15:52:05.479Z,8.33
2023-12-07T15:54:38.812Z,7.37
2023-12-07T15:57:09.809Z,8.17
2023-12-07T15:59:38.598Z,7.63
2023-12-07T16:02:06.378Z,7.83
2023-12-07T16:04:36.109Z,8.13
2023-12-07T16:07:08.410Z,8.03
2023-12-07T16:09:38.803Z,7.47
2023-12-07T16:12:07.724Z,8.20
2023-12-07T16:14:36.354Z,7.50
2023-12-07T16:17:04.205Z,7.43
2023-12-07T16:19:32.266Z,8.43
2023-12-07T16:22:00.249Z,9.17
2023-12-07T16:24:27.921Z,9.33
2023-12-07T16:26:56.956Z,11.40
2023-12-07T16:29:24.765Z,12.87
2023-12-07T16:31:52.429Z,11.50
2023-12-07T16:34:20.482Z,11.33
2023-12-07T16:36:48.390Z,12.63
2023-12-07T16:39:16.436Z,17.03
2023-12-07T16:41:49.075Z,18.53
2023-12-07T16:44:22.941Z,18.33
2023-12-07T16:46:50.609Z,16.60
2023-12-07T16:49:18.414Z,14.93
2023-12-07T16:51:46.083Z,14.40
2023-12-07T16:54:13.645Z,13.07
2023-12-07T16:56:41.309Z,12.20
2023-12-07T16:59:08.894Z,13.33
2023-12-07T17:01:36.458Z,12.80
2023-12-07T17:04:05.071Z,12.43
2023-12-07T17:06:37.386Z,11.57
2023-12-07T17:09:14.415Z,10.87
2023-12-07T17:11:44.291Z,11.43
2023-12-07T17:14:12.111Z,11.40
2023-12-07T17:16:39.706Z,12.40
2023-12-07T17:19:07.355Z,11.60
2023-12-07T17:21:35.278Z,11.60
2023-12-07T17:24:04.272Z,11.30
2023-12-07T17:26:36.667Z,10.60
2023-12-07T17:29:10.672Z,10.77
2023-12-07T17:31:38.236Z,11.17
2023-12-07T17:34:06.114Z,11.57
2023-12-07T17:36:33.716Z,11.80
2023-12-07T17:39:01.316Z,12.47
2023-12-07T17:41:29.404Z,12.57
2023-12-07T17:43:57.042Z,12.50
2023-12-07T17:46:24.623Z,11.20
2023-12-07T17:48:52.348Z,10.63
2023-12-07T17:51:20.072Z,12.13
2023-12-07T17:53:47.682Z,13.77
2023-12-07T17:56:15.315Z,19.23
2023-12-07T17:58:42.963Z,18.27
2023-12-07T18:01:10.527Z,15.17
2023-12-07T18:03:38.229Z,13.43
2023-12-07T18:06:10.513Z,12.57
2023-12-07T18:08:38.544Z,11.27
2023-12-07T18:11:06.518Z,10.47
2023-12-07T18:13:34.142Z,11.73
2023-12-07T18:16:01.773Z,13.47
2023-12-07T18:18:30.774Z,13.20
2023-12-07T18:20:58.543Z,12.23
2023-12-07T18:23:26.252Z,10.80
2023-12-07T18:25:53.978Z,11.83
2023-12-07T18:28:21.645Z,11.37
2023-12-07T18:30:49.246Z,11.37
2023-12-07T18:33:16.970Z,10.80
2023-12-07T18:35:44.678Z,10.83
2023-12-07T18:38:12.427Z,10.73
2023-12-07T18:40:43.665Z,10.00
2023-12-07T18:43:11.991Z,8.93
2023-12-07T18:45:42.970Z,9.67
2023-12-07T18:48:11.202Z,8.33
2023-12-07T18:50:38.950Z,9.97
2023-12-07T18:53:06.716Z,10.00
2023-12-07T18:55:34.330Z,10.43
2023-12-07T18:58:01.842Z,10.27
2023-12-07T19:00:29.527Z,9.87
2023-12-07T19:02:57.216Z,9.07
2023-12-07T19:05:24.896Z,9.60
2023-12-07T19:07:52.952Z,8.77
2023-12-07T19:10:20.559Z,8.47
2023-12-07T19:12:48.071Z,8.23
2023-12-07T19:15:15.717Z,8.87
2023-12-07T19:17:43.483Z,8.30
2023-12-07T19:20:11.898Z,9.13
2023-12-07T19:22:39.409Z,8.97
2023-12-07T19:25:07.143Z,11.00
2023-12-07T19:27:34.921Z,13.77
2023-12-07T19:30:03.555Z,11.60
2023-12-07T19:32:31.277Z,10.10
2023-12-07T19:34:58.956Z,9.13
2023-12-07T19:37:26.698Z,8.87
2023-12-07T19:39:54.467Z,8.20
2023-12-07T19:42:22.060Z,8.97
2023-12-07T19:44:49.675Z,9.30
2023-12-07T19:47:17.361Z,10.10
2023-12-07T19:49:45.094Z,9.77
2023-12-07T19:52:12.928Z,11.40
2023-12-07T19:54:41.799Z,11.27
2023-12-07T19:57:09.477Z,12.50
2023-12-07T19:59:37.212Z,12.90
2023-12-07T20:02:04.807Z,11.93
2023-12-07T20:04:33.780Z,10.50
2023-12-07T20:07:01.509Z,10.07
2023-12-07T20:09:29.094Z,9.30
2023-12-07T20:11:56.756Z,11.37
2023-12-07T20:14:24.331Z,14.23
2023-12-07T20:16:53.526Z,13.93
2023-12-07T20:19:21.324Z,17.10
2023-12-07T20:21:49.035Z,16.23
2023-12-07T20:24:16.587Z,16.67
2023-12-07T20:26:44.284Z,14.90
2023-12-07T20:29:11.911Z,14.70
2023-12-07T20:31:39.530Z,13.63
2023-12-07T20:34:07.222Z,11.47
2023-12-07T20:36:36.825Z,11.63
2023-12-07T20:39:04.636Z,11.67
2023-12-07T20:41:32.693Z,11.07
2023-12-07T20:44:00.995Z,10.73
2023-12-07T20:46:28.575Z,11.73
2023-12-07T20:48:56.301Z,11.77
2023-12-07T20:51:24.036Z,11.20
2023-12-07T20:53:51.582Z,9.97
2023-12-07T20:56:19.980Z,8.47
2023-12-07T20:58:47.701Z,8.73
2023-12-07T21:01:15.672Z,7.73
2023-12-07T21:03:43.292Z,9.30
2023-12-07T21:06:25.597Z,8.10
2023-12-07T21:08:54.994Z,8.87
2023-12-07T21:11:22.702Z,8.37
2023-12-07T21:13:50.294Z,8.50
2023-12-07T21:16:17.907Z,9.40
2023-12-07T21:18:45.577Z,8.07
2023-12-07T21:21:13.228Z,9.07
2023-12-07T21:23:40.845Z,8.20
2023-12-07T21:26:12.935Z,7.87
2023-12-07T21:28:41.227Z,8.33
2023-12-07T21:31:08.864Z,8.33
2023-12-07T21:33:37.626Z,8.90
2023-12-07T21:36:06.012Z,8.23
2023-12-07T21:38:33.772Z,8.23
2023-12-07T21:41:01.619Z,7.80
2023-12-07T21:43:29.285Z,8.60
2023-12-07T21:45:56.849Z,8.23
2023-12-07T21:48:24.584Z,8.33
2023-12-07T21:50:52.401Z,7.80
2023-12-07T21:53:19.961Z,8.20
2023-12-07T21:55:47.550Z,7.60
2023-12-07T21:58:15.124Z,7.23
2023-12-07T22:00:42.692Z,8.17
2023-12-07T22:03:10.675Z,8.67
2023-12-07T22:05:38.315Z,7.60
2023-12-07T22:08:05.891Z,7.30
2023-12-07T22:10:33.434Z,7.07
2023-12-07T22:13:00.959Z,7.80
2023-12-07T22:15:28.673Z,6.63
2023-12-07T22:17:56.375Z,7.23
2023-12-07T22:20:28.380Z,6.80
2023-12-07T22:22:56.132Z,7.27
2023-12-07T22:25:23.699Z,7.10
2023-12-07T22:27:51.316Z,7.67
2023-12-07T22:30:19.096Z,7.40
2023-12-07T22:32:47.375Z,7.77
2023-12-07T22:35:15.297Z,7.83
2023-12-07T22:37:43.048Z,7.13
2023-12-07T22:40:10.824Z,7.60
2023-12-07T22:42:38.407Z,7.50
2023-12-07T22:45:06.397Z,7.73
2023-12-07T22:47:34.244Z,8.13
2023-12-07T22:50:02.069Z,7.83
2023-12-07T22:52:29.721Z,7.53
2023-12-07T22:54:57.295Z,7.90
2023-12-07T22:57:25.237Z,7.63
2023-12-07T22:59:52.869Z,7.93
2023-12-07T23:02:20.507Z,7.80
2023-12-07T23:04:48.044Z,7.53
2023-12-07T23:07:15.966Z,7.47
2023-12-07T23:09:43.644Z,7.00
2023-12-07T23:12:11.160Z,7.13
2023-12-07T23:14:38.872Z,6.97
2023-12-07T23:17:06.446Z,7.40
2023-12-07T23:19:34.188Z,7.00
2023-12-07T23:22:01.783Z,6.97
2023-12-07T23:24:29.310Z,7.57
2023-12-07T23:26:56.839Z,6.93
2023-12-07T23:29:24.404Z,7.27
2023-12-07T23:31:51.963Z,7.40
2023-12-07T23:34:19.847Z,7.30
2023-12-07T23:36:48.590Z,7.40
2023-12-07T23:39:16.222Z,6.60
2023-12-07T23:41:43.819Z,7.27
2023-12-07T23:44:11.355Z,7.03
2023-12-07T23:46:39.288Z,6.67
2023-12-07T23:49:06.899Z,6.57
2023-12-07T23:51:34.585Z,6.57
2023-12-07T23:54:02.256Z,7.00
2023-12-07T23:56:30.287Z,6.50
2023-12-07T23:58:57.840Z,6.50
